^^
Marion, Virginia Banner
 

Adwolf, VA. Station Historical Data
[ Providing Data Since 6/07/2007 ]
Daily Summary for February 22, 2012 Units:  Both    English   Metric
« Previous Day
Next Day »
Daily Weekly Monthly Yearly Custom
  High: Low: Average:
Temperature: 55.3 °F /  12.9 °C 30.9 °F /  -0.6 °C 42 °F /  5.6 °C
Dew Point: 46.3 °F /  7.9 °C 29.2 °F /  -1.6 °C 38 °F /  3.3 °C
Humidity: 98% 37% 87%
Wind Speed: 26.5mph /  42.6km/h - 4mph /  6.4km/h
Wind Gust: 26.5mph /  42.6km/h - -
Wind- - SSW
Pressure: 29.98 in /  1015.1 hPa 29.58 in /  1001.6 hPa -
Precipitation: 0.96 in /  24.4 mm    
Historical Graphs
 
 
Tabular Data for February 22, 2012
Time Temperature Dew Point Pressure Wind Wind Speed Wind Gust Humidity Rainfall Rate (Hourly)
00:00 38.3 °F /  3.5 °C 33.9 °F /  1.1 °C 29.98in /  1015.1hPa South 1.2mph /  1.9km/h   84% 0.00in /  0mm
00:01 38.4 °F /  3.6 °C 33.7 °F /  0.9 °C 29.98in /  1015.1hPa Calm     83% 0.00in /  0mm
00:06 39.0 °F /  3.9 °C 34.0 °F /  1.1 °C 29.98in /  1015.1hPa South 1.2mph /  1.9km/h   82% 0.00in /  0mm
00:11 39.9 °F /  4.4 °C 34.5 °F /  1.4 °C 29.98in /  1015.1hPa SSW 1.2mph /  1.9km/h 1.2mph /  1.9km/h 81% 0.00in /  0mm
00:16 40.5 °F /  4.7 °C 34.5 °F /  1.4 °C 29.98in /  1015.1hPa Calm     79% 0.00in /  0mm
00:21 40.1 °F /  4.5 °C 34.1 °F /  1.2 °C 29.98in /  1015.1hPa Calm     79% 0.00in /  0mm
00:26 39.3 °F /  4.1 °C 34.0 °F /  1.1 °C 29.98in /  1015.1hPa Calm     81% 0.00in /  0mm
00:31 38.7 °F /  3.7 °C 33.7 °F /  0.9 °C 29.98in /  1015.1hPa Calm     82% 0.00in /  0mm
00:36 38.1 °F /  3.4 °C 33.1 °F /  0.6 °C 29.98in /  1015.1hPa Calm     82% 0.00in /  0mm
00:41 37.4 °F /  3 °C 33.0 °F /  0.6 °C 29.98in /  1015.1hPa Calm     84% 0.00in /  0mm
00:46 36.7 °F /  2.6 °C 32.3 °F /  0.2 °C 29.98in /  1015.1hPa Calm     84% 0.00in /  0mm
00:51 36.1 °F /  2.3 °C 32.0 °F /  0 °C 29.98in /  1015.1hPa Calm     85% 0.00in /  0mm
00:56 35.5 °F /  1.9 °C 31.7 °F /  -0.2 °C 29.98in /  1015.1hPa Calm     86% 0.00in /  0mm
01:01 35.2 °F /  1.8 °C 32.0 °F /  0 °C 29.98in /  1015.1hPa Calm     88% 0.00in /  0mm
01:06 35.1 °F /  1.7 °C 32.2 °F /  0.1 °C 29.98in /  1015.1hPa Calm     89% 0.00in /  0mm
01:11 35.0 °F /  1.7 °C 32.1 °F /  0.1 °C 29.98in /  1015.1hPa Calm     89% 0.00in /  0mm
01:16 34.7 °F /  1.5 °C 31.8 °F /  -0.1 °C 29.98in /  1015.1hPa Calm     89% 0.00in /  0mm
01:21 34.8 °F /  1.6 °C 32.2 °F /  0.1 °C 29.98in /  1015.1hPa SSE 1.2mph /  1.9km/h 1.2mph /  1.9km/h 90% 0.00in /  0mm
01:26 34.9 °F /  1.6 °C 32.3 °F /  0.2 °C 29.98in /  1015.1hPa SSE 1.2mph /  1.9km/h 1.2mph /  1.9km/h 90% 0.00in /  0mm
01:31 35.2 °F /  1.8 °C 32.6 °F /  0.3 °C 29.98in /  1015.1hPa Calm     90% 0.00in /  0mm
01:36 35.1 °F /  1.7 °C 32.2 °F /  0.1 °C 29.98in /  1015.1hPa SSE 1.0mph /  1.6km/h 1.0mph /  1.6km/h 89% 0.00in /  0mm
01:41 35.0 °F /  1.7 °C 32.4 °F /  0.2 °C 29.98in /  1015.1hPa Calm     90% 0.00in /  0mm
01:46 35.0 °F /  1.7 °C 32.1 °F /  0.1 °C 29.98in /  1015.1hPa SSE 1.2mph /  1.9km/h 1.2mph /  1.9km/h 89% 0.00in /  0mm
01:51 34.9 °F /  1.6 °C 32.3 °F /  0.2 °C 29.98in /  1015.1hPa Calm     90% 0.00in /  0mm
01:56 34.9 °F /  1.6 °C 32.3 °F /  0.2 °C 29.98in /  1015.1hPa SSE 1.2mph /  1.9km/h 1.2mph /  1.9km/h 90% 0.00in /  0mm
02:01 34.9 °F /  1.6 °C 32.3 °F /  0.2 °C 29.98in /  1015.1hPa Calm     90% 0.00in /  0mm
02:06 34.8 °F /  1.6 °C 32.2 °F /  0.1 °C 29.98in /  1015.1hPa SE 1.2mph /  1.9km/h 1.2mph /  1.9km/h 90% 0.00in /  0mm
02:11 34.7 °F /  1.5 °C 31.8 °F /  -0.1 °C 29.98in /  1015.1hPa SE 1.2mph /  1.9km/h 1.2mph /  1.9km/h 89% 0.00in /  0mm
02:16 34.6 °F /  1.4 °C 32.0 °F /  0 °C 29.98in /  1015.1hPa SE 1.2mph /  1.9km/h 1.2mph /  1.9km/h 90% 0.00in /  0mm
02:21 34.7 °F /  1.5 °C 32.1 °F /  0.1 °C 29.98in /  1015.1hPa SE 1.2mph /  1.9km/h 1.2mph /  1.9km/h 90% 0.00in /  0mm
02:26 34.7 °F /  1.5 °C 32.1 °F /  0.1 °C 29.98in /  1015.1hPa Calm     90% 0.00in /  0mm
02:31 34.4 °F /  1.3 °C 31.8 °F /  -0.1 °C 29.98in /  1015.1hPa Calm     90% 0.00in /  0mm
02:36 34.2 °F /  1.2 °C 31.6 °F /  -0.2 °C 29.97in /  1014.8hPa Calm     90% 0.00in /  0mm
02:41 34.1 °F /  1.2 °C 31.5 °F /  -0.3 °C 29.97in /  1014.8hPa SE 1.2mph /  1.9km/h 1.2mph /  1.9km/h 90% 0.00in /  0mm
02:46 34.1 °F /  1.2 °C 31.7 °F /  -0.2 °C 29.97in /  1014.8hPa SE 1.2mph /  1.9km/h 1.2mph /  1.9km/h 91% 0.00in /  0mm
02:51 34.2 °F /  1.2 °C 31.8 °F /  -0.1 °C 29.97in /  1014.8hPa SE 1.2mph /  1.9km/h 1.2mph /  1.9km/h 91% 0.00in /  0mm
02:56 34.2 °F /  1.2 °C 31.8 °F /  -0.1 °C 29.97in /  1014.8hPa Calm     91% 0.00in /  0mm
03:01 34.1 °F /  1.2 °C 31.7 °F /  -0.2 °C 29.96in /  1014.4hPa Calm     91% 0.00in /  0mm
03:06 34.0 °F /  1.1 °C 31.6 °F /  -0.2 °C 29.96in /  1014.4hPa SE 1.2mph /  1.9km/h 1.2mph /  1.9km/h 91% 0.00in /  0mm
03:11 34.3 °F /  1.3 °C 31.9 °F /  -0.1 °C 29.96in /  1014.4hPa SE 1.2mph /  1.9km/h   91% 0.00in /  0mm
03:16 34.3 °F /  1.3 °C 31.7 °F /  -0.2 °C 29.96in /  1014.4hPa SE 1.2mph /  1.9km/h 1.2mph /  1.9km/h 90% 0.00in /  0mm
03:21 34.6 °F /  1.4 °C 32.0 °F /  0 °C 29.95in /  1014.1hPa SE 1.2mph /  1.9km/h 1.2mph /  1.9km/h 90% 0.00in /  0mm
03:26 34.7 °F /  1.5 °C 31.8 °F /  -0.1 °C 29.95in /  1014.1hPa Calm     89% 0.00in /  0mm
03:31 34.4 °F /  1.3 °C 31.5 °F /  -0.3 °C 29.95in /  1014.1hPa Calm     89% 0.00in /  0mm
03:36 34.2 °F /  1.2 °C 31.6 °F /  -0.2 °C 29.95in /  1014.1hPa SSE 1.2mph /  1.9km/h 1.2mph /  1.9km/h 90% 0.00in /  0mm
03:41 34.4 °F /  1.3 °C 31.8 °F /  -0.1 °C 29.95in /  1014.1hPa Calm     90% 0.00in /  0mm
03:46 34.5 °F /  1.4 °C 31.9 °F /  -0.1 °C 29.95in /  1014.1hPa South 1.2mph /  1.9km/h 1.2mph /  1.9km/h 90% 0.00in /  0mm
03:51 34.4 °F /  1.3 °C 31.5 °F /  -0.3 °C 29.95in /  1014.1hPa Calm     89% 0.00in /  0mm
03:56 34.2 °F /  1.2 °C 31.3 °F /  -0.4 °C 29.94in /  1013.8hPa Calm     89% 0.00in /  0mm
04:01 34.2 °F /  1.2 °C 31.6 °F /  -0.2 °C 29.94in /  1013.8hPa Calm     90% 0.00in /  0mm
04:06 34.4 °F /  1.3 °C 31.8 °F /  -0.1 °C 29.94in /  1013.8hPa Calm     90% 0.00in /  0mm
04:11 34.4 °F /  1.3 °C 31.8 °F /  -0.1 °C 29.94in /  1013.8hPa SSE 1.2mph /  1.9km/h 1.2mph /  1.9km/h 90% 0.00in /  0mm
04:16 34.4 °F /  1.3 °C 31.8 °F /  -0.1 °C 29.94in /  1013.8hPa SSE 1.2mph /  1.9km/h 1.2mph /  1.9km/h 90% 0.00in /  0mm
04:21 34.5 °F /  1.4 °C 31.9 °F /  -0.1 °C 29.94in /  1013.8hPa SSE 1.2mph /  1.9km/h 1.2mph /  1.9km/h 90% 0.00in /  0mm
04:26 34.5 °F /  1.4 °C 31.9 °F /  -0.1 °C 29.94in /  1013.8hPa Calm     90% 0.00in /  0mm
04:31 34.5 °F /  1.4 °C 32.1 °F /  0.1 °C 29.94in /  1013.8hPa Calm     91% 0.00in /  0mm
04:36 34.3 °F /  1.3 °C 31.7 °F /  -0.2 °C 29.94in /  1013.8hPa SSE 1.0mph /  1.6km/h 1.0mph /  1.6km/h 90% 0.00in /  0mm
04:41 34.4 °F /  1.3 °C 32.0 °F /  0 °C 29.95in /  1014.1hPa SSE 1.2mph /  1.9km/h 1.2mph /  1.9km/h 91% 0.00in /  0mm
04:46 34.5 °F /  1.4 °C 31.9 °F /  -0.1 °C 29.95in /  1014.1hPa Calm     90% 0.00in /  0mm
04:51 34.5 °F /  1.4 °C 32.1 °F /  0.1 °C 29.95in /  1014.1hPa South 1.2mph /  1.9km/h   91% 0.00in /  0mm
04:56 34.5 °F /  1.4 °C 32.1 °F /  0.1 °C 29.95in /  1014.1hPa Calm     91% 0.00in /  0mm
05:01 34.5 °F /  1.4 °C 32.1 °F /  0.1 °C 29.94in /  1013.8hPa Calm     91% 0.00in /  0mm
05:06 34.6 °F /  1.4 °C 32.2 °F /  0.1 °C 29.94in /  1013.8hPa Calm     91% 0.00in /  0mm
05:11 34.5 °F /  1.4 °C 32.1 °F /  0.1 °C 29.94in /  1013.8hPa Calm     91% 0.00in /  0mm
05:16 34.1 °F /  1.2 °C 31.5 °F /  -0.3 °C 29.94in /  1013.8hPa Calm     90% 0.00in /  0mm
05:21 34.1 °F /  1.2 °C 31.7 °F /  -0.2 °C 29.94in /  1013.8hPa Calm     91% 0.00in /  0mm
05:26 34.1 °F /  1.2 °C 31.7 °F /  -0.2 °C 29.94in /  1013.8hPa South 1.2mph /  1.9km/h 1.2mph /  1.9km/h 91% 0.00in /  0mm
05:31 34.0 °F /  1.1 °C 31.6 °F /  -0.2 °C 29.94in /  1013.8hPa South 1.2mph /  1.9km/h 1.2mph /  1.9km/h 91% 0.00in /  0mm
05:36 34.0 °F /  1.1 °C 31.6 °F /  -0.2 °C 29.94in /  1013.8hPa Calm     91% 0.00in /  0mm
05:41 33.9 °F /  1.1 °C 31.8 °F /  -0.1 °C 29.94in /  1013.8hPa Calm     92% 0.00in /  0mm
05:46 34.0 °F /  1.1 °C 31.9 °F /  -0.1 °C 29.94in /  1013.8hPa Calm     92% 0.00in /  0mm
05:51 33.9 °F /  1.1 °C 31.8 °F /  -0.1 °C 29.94in /  1013.8hPa Calm     92% 0.00in /  0mm
05:56 33.6 °F /  0.9 °C 31.5 °F /  -0.3 °C 29.94in /  1013.8hPa South 1.2mph /  1.9km/h 1.2mph /  1.9km/h 92% 0.00in /  0mm
06:01 33.6 °F /  0.9 °C 31.5 °F /  -0.3 °C 29.94in /  1013.8hPa Calm     92% 0.00in /  0mm
06:06 33.4 °F /  0.8 °C 31.3 °F /  -0.4 °C 29.94in /  1013.8hPa Calm     92% 0.00in /  0mm
06:11 33.2 °F /  0.7 °C 31.1 °F /  -0.5 °C 29.94in /  1013.8hPa Calm     92% 0.00in /  0mm
06:16 32.9 °F /  0.5 °C 30.8 °F /  -0.7 °C 29.94in /  1013.8hPa Calm     92% 0.00in /  0mm
06:21 32.9 °F /  0.5 °C 31.1 °F /  -0.5 °C 29.94in /  1013.8hPa Calm     93% 0.00in /  0mm
06:26 32.9 °F /  0.5 °C 31.1 °F /  -0.5 °C 29.94in /  1013.8hPa Calm     93% 0.00in /  0mm
06:31 32.6 °F /  0.3 °C 30.5 °F /  -0.8 °C 29.94in /  1013.8hPa Calm     92% 0.00in /  0mm
06:36 32.4 °F /  0.2 °C 30.6 °F /  -0.8 °C 29.94in /  1013.8hPa Calm     93% 0.00in /  0mm
06:41 32.4 °F /  0.2 °C 30.6 °F /  -0.8 °C 29.94in /  1013.8hPa Calm     93% 0.00in /  0mm
06:46 32.1 °F /  0.1 °C 30.3 °F /  -0.9 °C 29.94in /  1013.8hPa Calm     93% 0.00in /  0mm
06:51 32.0 °F /  0 °C 30.2 °F /  -1 °C 29.94in /  1013.8hPa Calm     93% 0.00in /  0mm
06:56 32.3 °F /  0.2 °C 30.8 °F /  -0.7 °C 29.94in /  1013.8hPa Calm     94% 0.00in /  0mm
07:01 32.2 °F /  0.1 °C 30.4 °F /  -0.9 °C 29.94in /  1013.8hPa Calm     93% 0.00in /  0mm
07:06 32.1 °F /  0.1 °C 30.6 °F /  -0.8 °C 29.94in /  1013.8hPa Calm     94% 0.00in /  0mm
07:11 31.8 °F /  -0.1 °C 30.0 °F /  -1.1 °C 29.94in /  1013.8hPa Calm     93% 0.00in /  0mm
07:16 31.4 °F /  -0.3 °C 29.6 °F /  -1.3 °C 29.94in /  1013.8hPa Calm     93% 0.00in /  0mm
07:21 31.2 °F /  -0.4 °C 29.4 °F /  -1.4 °C 29.94in /  1013.8hPa Calm     93% 0.00in /  0mm
07:26 31.0 °F /  -0.6 °C 29.2 °F /  -1.6 °C 29.93in /  1013.4hPa Calm     93% 0.00in /  0mm
07:31 30.9 °F /  -0.6 °C 29.4 °F /  -1.4 °C 29.93in /  1013.4hPa Calm     94% 0.00in /  0mm
07:36 31.2 °F /  -0.4 °C 29.7 °F /  -1.3 °C 29.93in /  1013.4hPa Calm     94% 0.00in /  0mm
07:41 31.9 °F /  -0.1 °C 30.4 °F /  -0.9 °C 29.93in /  1013.4hPa Calm     94% 0.00in /  0mm
07:46 32.5 °F /  0.3 °C 31.0 °F /  -0.6 °C 29.93in /  1013.4hPa Calm     94% 0.00in /  0mm
07:51 32.9 °F /  0.5 °C 31.1 °F /  -0.5 °C 29.93in /  1013.4hPa Calm     93% 0.00in /  0mm
07:56 33.2 °F /  0.7 °C 31.4 °F /  -0.3 °C 29.93in /  1013.4hPa South 1.0mph /  1.6km/h 1.0mph /  1.6km/h 93% 0.00in /  0mm
08:01 33.7 °F /  0.9 °C 31.9 °F /  -0.1 °C 29.94in /  1013.8hPa South 1.2mph /  1.9km/h 1.2mph /  1.9km/h 93% 0.00in /  0mm
08:06 34.2 °F /  1.2 °C 32.1 °F /  0.1 °C 29.94in /  1013.8hPa SSE 1.2mph /  1.9km/h 1.2mph /  1.9km/h 92% 0.00in /  0mm
08:11 34.3 °F /  1.3 °C 32.2 °F /  0.1 °C 29.94in /  1013.8hPa SSE 1.2mph /  1.9km/h 1.2mph /  1.9km/h 92% 0.00in /  0mm
08:16 34.7 °F /  1.5 °C 32.3 °F /  0.2 °C 29.94in /  1013.8hPa SSE 1.2mph /  1.9km/h 1.2mph /  1.9km/h 91% 0.00in /  0mm
08:21 35.2 °F /  1.8 °C 32.8 °F /  0.4 °C 29.93in /  1013.4hPa Calm     91% 0.00in /  0mm
08:26 35.7 °F /  2.1 °C 33.3 °F /  0.7 °C 29.93in /  1013.4hPa SSE 1.2mph /  1.9km/h   91% 0.00in /  0mm
08:31 36.3 °F /  2.4 °C 33.9 °F /  1.1 °C 29.92in /  1013.1hPa Calm     91% 0.00in /  0mm
08:36 36.8 °F /  2.7 °C 34.1 °F /  1.2 °C 29.92in /  1013.1hPa East 1.2mph /  1.9km/h   90% 0.00in /  0mm
08:41 37.2 °F /  2.9 °C 34.5 °F /  1.4 °C 29.92in /  1013.1hPa East 1.2mph /  1.9km/h 1.2mph /  1.9km/h 90% 0.00in /  0mm
08:46 37.7 °F /  3.2 °C 35.0 °F /  1.7 °C 29.92in /  1013.1hPa East 1.0mph /  1.6km/h 1.0mph /  1.6km/h 90% 0.00in /  0mm
08:51 38.4 °F /  3.6 °C 35.4 °F /  1.9 °C 29.92in /  1013.1hPa Calm     89% 0.00in /  0mm
08:56 39.4 °F /  4.1 °C 36.1 °F /  2.3 °C 29.92in /  1013.1hPa ENE 1.2mph /  1.9km/h 1.2mph /  1.9km/h 88% 0.00in /  0mm
09:01 40.0 °F /  4.4 °C 36.2 °F /  2.3 °C 29.92in /  1013.1hPa ENE 1.0mph /  1.6km/h 1.0mph /  1.6km/h 86% 0.00in /  0mm
09:06 40.7 °F /  4.8 °C 36.5 °F /  2.5 °C 29.92in /  1013.1hPa NE 1.2mph /  1.9km/h 1.2mph /  1.9km/h 85% 0.00in /  0mm
09:07 40.8 °F /  4.9 °C 36.6 °F /  2.6 °C 29.92in /  1013.1hPa NE 2.3mph /  3.7km/h 2.3mph /  3.7km/h 85% 0.00in /  0mm
09:12 41.3 °F /  5.2 °C 36.8 °F /  2.7 °C 29.92in /  1013.1hPa NNE 1.2mph /  1.9km/h 1.2mph /  1.9km/h 84% 0.00in /  0mm
09:17 41.7 °F /  5.4 °C 36.6 °F /  2.6 °C 29.92in /  1013.1hPa Calm     82% 0.00in /  0mm
09:22 42.2 °F /  5.7 °C 36.8 °F /  2.7 °C 29.91in /  1012.8hPa NNE 1.0mph /  1.6km/h   81% 0.00in /  0mm
09:27 42.7 °F /  5.9 °C 36.6 °F /  2.6 °C 29.91in /  1012.8hPa NNE 1.2mph /  1.9km/h   79% 0.00in /  0mm
09:32 43.2 °F /  6.2 °C 37.1 °F /  2.8 °C 29.90in /  1012.4hPa NE 2.3mph /  3.7km/h 2.3mph /  3.7km/h 79% 0.00in /  0mm
09:37 43.9 °F /  6.6 °C 36.8 °F /  2.7 °C 29.90in /  1012.4hPa WNW 2.0mph /  3.2km/h 2.0mph /  3.2km/h 76% 0.00in /  0mm
09:42 45.0 °F /  7.2 °C 36.2 °F /  2.3 °C 29.90in /  1012.4hPa West 3.5mph /  5.6km/h 3.5mph /  5.6km/h 71% 0.00in /  0mm
09:47 45.9 °F /  7.7 °C 36.7 °F /  2.6 °C 29.89in /  1012.1hPa NW 2.3mph /  3.7km/h 2.3mph /  3.7km/h 70% 0.00in /  0mm
09:52 46.9 °F /  8.3 °C 37.3 °F /  2.9 °C 29.89in /  1012.1hPa NNW 2.3mph /  3.7km/h 2.3mph /  3.7km/h 69% 0.00in /  0mm
09:57 47.5 °F /  8.6 °C 36.7 °F /  2.6 °C 29.88in /  1011.7hPa WNW 4.0mph /  6.4km/h 4.0mph /  6.4km/h 66% 0.00in /  0mm
10:02 48.0 °F /  8.9 °C 37.2 °F /  2.9 °C 29.88in /  1011.7hPa WNW 2.3mph /  3.7km/h 2.3mph /  3.7km/h 66% 0.00in /  0mm
10:07 48.3 °F /  9.1 °C 36.3 °F /  2.4 °C 29.88in /  1011.7hPa WNW 5.8mph /  9.3km/h 5.8mph /  9.3km/h 63% 0.00in /  0mm
10:12 48.8 °F /  9.3 °C 37.6 °F /  3.1 °C 29.88in /  1011.7hPa SSW 1.2mph /  1.9km/h 1.2mph /  1.9km/h 65% 0.00in /  0mm
10:17 50.0 °F /  10 °C 37.1 °F /  2.8 °C 29.87in /  1011.4hPa SSW 2.3mph /  3.7km/h 2.3mph /  3.7km/h 61% 0.00in /  0mm
10:22 50.8 °F /  10.4 °C 35.2 °F /  1.8 °C 29.87in /  1011.4hPa NW 5.8mph /  9.3km/h 5.8mph /  9.3km/h 55% 0.00in /  0mm
10:27 51.4 °F /  10.8 °C 35.3 °F /  1.8 °C 29.86in /  1011.1hPa West 4.0mph /  6.4km/h 4.0mph /  6.4km/h 54% 0.00in /  0mm
10:32 52.1 °F /  11.2 °C 35.0 °F /  1.7 °C 29.86in /  1011.1hPa SSW 5.8mph /  9.3km/h 5.8mph /  9.3km/h 52% 0.00in /  0mm
10:37 52.4 °F /  11.3 °C 33.8 °F /  1 °C 29.85in /  1010.7hPa SW 6.9mph /  11.1km/h 6.9mph /  11.1km/h 49% 0.00in /  0mm
10:42 52.6 °F /  11.4 °C 34.0 °F /  1.1 °C 29.85in /  1010.7hPa NW 3.5mph /  5.6km/h 3.5mph /  5.6km/h 49% 0.00in /  0mm
10:47 53.1 °F /  11.7 °C 33.9 °F /  1.1 °C 29.85in /  1010.7hPa WNW 6.9mph /  11.1km/h 6.9mph /  11.1km/h 48% 0.00in /  0mm
10:52 53.4 °F /  11.9 °C 33.1 °F /  0.6 °C 29.85in /  1010.7hPa WSW 12.7mph /  20.4km/h 12.7mph /  20.4km/h 46% 0.00in /  0mm
10:57 53.7 °F /  12.1 °C 32.8 °F /  0.4 °C 29.85in /  1010.7hPa West 11.5mph /  18.5km/h 11.5mph /  18.5km/h 45% 0.00in /  0mm
11:02 54.3 °F /  12.4 °C 32.8 °F /  0.4 °C 29.84in /  1010.4hPa WNW 10.4mph /  16.7km/h 10.4mph /  16.7km/h 44% 0.00in /  0mm
11:07 54.7 °F /  12.6 °C 33.2 °F /  0.7 °C 29.84in /  1010.4hPa West 7.0mph /  11.3km/h 7.0mph /  11.3km/h 44% 0.00in /  0mm
11:12 55.0 °F /  12.8 °C 31.1 °F /  -0.5 °C 29.84in /  1010.4hPa SSW 11.5mph /  18.5km/h 11.5mph /  18.5km/h 40% 0.00in /  0mm
11:17 55.1 °F /  12.8 °C 30.6 °F /  -0.8 °C 29.84in /  1010.4hPa SW 13.8mph /  22.2km/h 13.8mph /  22.2km/h 39% 0.00in /  0mm
11:22 55.1 °F /  12.8 °C 31.2 °F /  -0.4 °C 29.84in /  1010.4hPa WNW 9.2mph /  14.8km/h 9.2mph /  14.8km/h 40% 0.00in /  0mm
11:27 55.3 °F /  12.9 °C 29.4 °F /  -1.4 °C 29.83in /  1010hPa WSW 9.0mph /  14.5km/h 9.0mph /  14.5km/h 37% 0.00in /  0mm
11:32 55.2 °F /  12.9 °C 30.0 °F /  -1.1 °C 29.83in /  1010hPa SW 10.4mph /  16.7km/h 10.4mph /  16.7km/h 38% 0.00in /  0mm
11:38 55.2 °F /  12.9 °C 29.4 °F /  -1.4 °C 29.83in /  1010hPa NW 12.0mph /  19.3km/h 12.0mph /  19.3km/h 37% 0.00in /  0mm
11:43 55.1 °F /  12.8 °C 29.3 °F /  -1.5 °C 29.83in /  1010hPa WSW 11.5mph /  18.5km/h 11.5mph /  18.5km/h 37% 0.00in /  0mm
11:48 54.9 °F /  12.7 °C 29.7 °F /  -1.3 °C 29.84in /  1010.4hPa WNW 11.5mph /  18.5km/h 11.5mph /  18.5km/h 38% 0.00in /  0mm
11:53 54.6 °F /  12.6 °C 30.7 °F /  -0.7 °C 29.84in /  1010.4hPa West 10.0mph /  16.1km/h 10.0mph /  16.1km/h 40% 0.00in /  0mm
11:58 53.8 °F /  12.1 °C 32.9 °F /  0.5 °C 29.85in /  1010.7hPa SW 19.6mph /  31.5km/h 19.6mph /  31.5km/h 45% 0.00in /  0mm
12:03 51.4 °F /  10.8 °C 37.5 °F /  3.1 °C 29.87in /  1011.4hPa WSW 26.5mph /  42.6km/h 26.5mph /  42.6km/h 59% 0.00in /  0mm
12:08 49.0 °F /  9.4 °C 38.5 °F /  3.6 °C 29.87in /  1011.4hPa West 15.0mph /  24.1km/h 15.0mph /  24.1km/h 67% 0.01in /  0.3mm
12:13 47.4 °F /  8.6 °C 38.8 °F /  3.8 °C 29.88in /  1011.7hPa North 16.1mph /  25.9km/h 16.1mph /  25.9km/h 72% 0.02in /  0.5mm
12:18 46.4 °F /  8 °C 38.9 °F /  3.8 °C 29.87in /  1011.4hPa West 10.4mph /  16.7km/h 10.4mph /  16.7km/h 75% 0.03in /  0.8mm
12:23 45.8 °F /  7.7 °C 39.3 °F /  4.1 °C 29.87in /  1011.4hPa WSW 6.9mph /  11.1km/h 6.9mph /  11.1km/h 78% 0.03in /  0.8mm
12:28 45.3 °F /  7.4 °C 39.8 °F /  4.3 °C 29.88in /  1011.7hPa SW 9.2mph /  14.8km/h 9.2mph /  14.8km/h 81% 0.04in /  1mm
12:33 44.9 °F /  7.2 °C 39.7 °F /  4.3 °C 29.88in /  1011.7hPa SW 5.8mph /  9.3km/h 5.8mph /  9.3km/h 82% 0.05in /  1.3mm
12:38 44.4 °F /  6.9 °C 39.6 °F /  4.2 °C 29.87in /  1011.4hPa SSW 6.9mph /  11.1km/h 6.9mph /  11.1km/h 83% 0.06in /  1.5mm
12:39 44.4 °F /  6.9 °C 39.9 °F /  4.4 °C 29.87in /  1011.4hPa WSW 6.0mph /  9.7km/h 6.0mph /  9.7km/h 84% 0.07in /  1.8mm
12:44 44.1 °F /  6.7 °C 39.9 °F /  4.4 °C 29.86in /  1011.1hPa SW 9.2mph /  14.8km/h 9.2mph /  14.8km/h 85% 0.08in /  2mm
12:49 43.9 °F /  6.6 °C 40.0 °F /  4.4 °C 29.85in /  1010.7hPa WSW 6.9mph /  11.1km/h 6.9mph /  11.1km/h 86% 0.08in /  2mm
12:54 43.9 °F /  6.6 °C 40.3 °F /  4.6 °C 29.84in /  1010.4hPa South 3.5mph /  5.6km/h 3.5mph /  5.6km/h 87% 0.09in /  2.3mm
12:59 43.7 °F /  6.5 °C 40.4 °F /  4.7 °C 29.84in /  1010.4hPa SW 3.5mph /  5.6km/h 3.5mph /  5.6km/h 88% 0.10in /  2.5mm
13:04 43.6 °F /  6.4 °C 40.6 °F /  4.8 °C 29.84in /  1010.4hPa WNW 4.6mph /  7.4km/h 4.6mph /  7.4km/h 89% 0.10in /  2.5mm
13:09 43.6 °F /  6.4 °C 40.6 °F /  4.8 °C 29.83in /  1010hPa SSW 4.6mph /  7.4km/h 4.6mph /  7.4km/h 89% 0.10in /  2.5mm
13:14 43.6 °F /  6.4 °C 40.9 °F /  4.9 °C 29.83in /  1010hPa SSW 3.5mph /  5.6km/h 3.5mph /  5.6km/h 90% 0.10in /  2.5mm
13:19 43.6 °F /  6.4 °C 41.1 °F /  5.1 °C 29.82in /  1009.7hPa South 2.3mph /  3.7km/h 2.3mph /  3.7km/h 91% 0.09in /  2.3mm
13:24 43.7 °F /  6.5 °C 41.2 °F /  5.1 °C 29.81in /  1009.4hPa SSW 5.8mph /  9.3km/h 5.8mph /  9.3km/h 91% 0.09in /  2.3mm
13:29 43.7 °F /  6.5 °C 41.5 °F /  5.3 °C 29.81in /  1009.4hPa WNW 2.3mph /  3.7km/h 2.3mph /  3.7km/h 92% 0.10in /  2.5mm
13:34 43.7 °F /  6.5 °C 41.5 °F /  5.3 °C 29.81in /  1009.4hPa WNW 2.3mph /  3.7km/h 2.3mph /  3.7km/h 92% 0.10in /  2.5mm
13:39 43.8 °F /  6.6 °C 41.6 °F /  5.3 °C 29.81in /  1009.4hPa WNW 2.3mph /  3.7km/h 2.3mph /  3.7km/h 92% 0.08in /  2mm
13:44 43.8 °F /  6.6 °C 41.6 °F /  5.3 °C 29.80in /  1009hPa WNW 2.3mph /  3.7km/h 2.3mph /  3.7km/h 92% 0.07in /  1.8mm
13:49 43.9 °F /  6.6 °C 42.0 °F /  5.6 °C 29.80in /  1009hPa NW 1.2mph /  1.9km/h 1.2mph /  1.9km/h 93% 0.07in /  1.8mm
13:54 43.8 °F /  6.6 °C 41.9 °F /  5.5 °C 29.79in /  1008.7hPa NNE 1.2mph /  1.9km/h 1.2mph /  1.9km/h 93% 0.06in /  1.5mm
13:59 43.7 °F /  6.5 °C 41.8 °F /  5.4 °C 29.79in /  1008.7hPa NW 2.3mph /  3.7km/h 2.3mph /  3.7km/h 93% 0.05in /  1.3mm
14:04 43.7 °F /  6.5 °C 42.1 °F /  5.6 °C 29.78in /  1008.4hPa SSE 2.0mph /  3.2km/h 2.0mph /  3.2km/h 94% 0.07in /  1.8mm
14:09 44.1 °F /  6.7 °C 42.8 °F /  6 °C 29.76in /  1007.7hPa SE 3.0mph /  4.8km/h 3.0mph /  4.8km/h 95% 0.07in /  1.8mm
14:14 44.3 °F /  6.8 °C 43.0 °F /  6.1 °C 29.76in /  1007.7hPa NW 2.3mph /  3.7km/h 2.3mph /  3.7km/h 95% 0.07in /  1.8mm
14:19 44.6 °F /  7 °C 43.3 °F /  6.3 °C 29.77in /  1008hPa NW 3.5mph /  5.6km/h 3.5mph /  5.6km/h 95% 0.07in /  1.8mm
14:24 44.9 °F /  7.2 °C 43.6 °F /  6.4 °C 29.76in /  1007.7hPa NW 3.5mph /  5.6km/h 3.5mph /  5.6km/h 95% 0.06in /  1.5mm
14:29 45.0 °F /  7.2 °C 43.4 °F /  6.3 °C 29.75in /  1007.3hPa NNE 2.3mph /  3.7km/h   94% 0.05in /  1.3mm
14:34 45.1 °F /  7.3 °C 43.5 °F /  6.4 °C 29.75in /  1007.3hPa WNW 3.5mph /  5.6km/h 3.5mph /  5.6km/h 94% 0.04in /  1mm
14:39 44.9 °F /  7.2 °C 43.3 °F /  6.3 °C 29.75in /  1007.3hPa NW 3.5mph /  5.6km/h 3.5mph /  5.6km/h 94% 0.04in /  1mm
14:44 44.9 °F /  7.2 °C 43.6 °F /  6.4 °C 29.74in /  1007hPa WNW 1.2mph /  1.9km/h 1.2mph /  1.9km/h 95% 0.04in /  1mm
14:49 45.0 °F /  7.2 °C 43.7 °F /  6.5 °C 29.73in /  1006.7hPa NNW 2.3mph /  3.7km/h 2.3mph /  3.7km/h 95% 0.04in /  1mm
14:54 45.1 °F /  7.3 °C 43.8 °F /  6.6 °C 29.73in /  1006.7hPa NW 1.2mph /  1.9km/h 1.2mph /  1.9km/h 95% 0.04in /  1mm
14:59 45.3 °F /  7.4 °C 44.0 °F /  6.7 °C 29.73in /  1006.7hPa East 1.2mph /  1.9km/h 1.2mph /  1.9km/h 95% 0.04in /  1mm
15:04 45.4 °F /  7.4 °C 44.1 °F /  6.7 °C 29.74in /  1007hPa North 3.5mph /  5.6km/h 3.5mph /  5.6km/h 95% 0.02in /  0.5mm
15:09 45.4 °F /  7.4 °C 44.1 °F /  6.7 °C 29.73in /  1006.7hPa WNW 2.3mph /  3.7km/h 2.3mph /  3.7km/h 95% 0.01in /  0.3mm
15:14 45.5 °F /  7.5 °C 44.2 °F /  6.8 °C 29.73in /  1006.7hPa WNW 3.5mph /  5.6km/h 3.5mph /  5.6km/h 95% 0.00in /  0mm
15:19 45.6 °F /  7.6 °C 44.3 °F /  6.8 °C 29.73in /  1006.7hPa WNW 1.2mph /  1.9km/h 1.2mph /  1.9km/h 95% 0.00in /  0mm
15:24 45.8 °F /  7.7 °C 44.4 °F /  6.9 °C 29.73in /  1006.7hPa WNW 2.3mph /  3.7km/h 2.3mph /  3.7km/h 95% 0.00in /  0mm
15:29 46.2 °F /  7.9 °C 44.8 °F /  7.1 °C 29.73in /  1006.7hPa WNW 5.0mph /  8km/h 5.0mph /  8km/h 95% 0.00in /  0mm
15:34 47.1 °F /  8.4 °C 45.5 °F /  7.5 °C 29.73in /  1006.7hPa SW 6.0mph /  9.7km/h 6.0mph /  9.7km/h 94% 0.00in /  0mm
15:39 47.7 °F /  8.7 °C 45.5 °F /  7.5 °C 29.72in /  1006.3hPa West 9.2mph /  14.8km/h 9.2mph /  14.8km/h 92% 0.00in /  0mm
15:44 48.2 °F /  9 °C 45.7 °F /  7.6 °C 29.71in /  1006hPa WSW 10.0mph /  16.1km/h 10.0mph /  16.1km/h 91% 0.00in /  0mm
15:49 48.5 °F /  9.2 °C 46.0 °F /  7.8 °C 29.71in /  1006hPa WSW 8.0mph /  12.9km/h 8.0mph /  12.9km/h 91% 0.00in /  0mm
15:54 48.6 °F /  9.2 °C 46.1 °F /  7.8 °C 29.71in /  1006hPa West 6.9mph /  11.1km/h 6.9mph /  11.1km/h 91% 0.00in /  0mm
15:59 48.7 °F /  9.3 °C 46.2 °F /  7.9 °C 29.71in /  1006hPa West 6.9mph /  11.1km/h 6.9mph /  11.1km/h 91% 0.00in /  0mm
16:04 48.7 °F /  9.3 °C 46.2 °F /  7.9 °C 29.70in /  1005.6hPa NW 5.8mph /  9.3km/h 5.8mph /  9.3km/h 91% 0.00in /  0mm
16:09 48.8 °F /  9.3 °C 46.0 °F /  7.8 °C 29.70in /  1005.6hPa SSW 11.5mph /  18.5km/h 11.5mph /  18.5km/h 90% 0.00in /  0mm
16:14 48.8 °F /  9.3 °C 46.3 °F /  7.9 °C 29.70in /  1005.6hPa SE 2.3mph /  3.7km/h 2.3mph /  3.7km/h 91% 0.00in /  0mm
16:19 48.8 °F /  9.3 °C 46.3 °F /  7.9 °C 29.70in /  1005.6hPa West 2.3mph /  3.7km/h 2.3mph /  3.7km/h 91% 0.00in /  0mm
16:24 48.7 °F /  9.3 °C 46.2 °F /  7.9 °C 29.70in /  1005.6hPa Calm   0.2mph /  0.3km/h 91% 0.00in /  0mm
16:29 48.7 °F /  9.3 °C 45.9 °F /  7.7 °C 29.69in /  1005.3hPa West 3.5mph /  5.6km/h 3.5mph /  5.6km/h 90% 0.00in /  0mm
16:34 48.6 °F /  9.2 °C 45.8 °F /  7.7 °C 29.69in /  1005.3hPa WSW 3.5mph /  5.6km/h 3.5mph /  5.6km/h 90% 0.00in /  0mm
16:39 48.6 °F /  9.2 °C 45.8 °F /  7.7 °C 29.69in /  1005.3hPa NW 3.5mph /  5.6km/h 3.5mph /  5.6km/h 90% 0.00in /  0mm
16:44 48.7 °F /  9.3 °C 46.2 °F /  7.9 °C 29.69in /  1005.3hPa West 1.2mph /  1.9km/h 1.2mph /  1.9km/h 91% 0.00in /  0mm
16:49 48.6 °F /  9.2 °C 45.8 °F /  7.7 °C 29.68in /  1005hPa WSW 3.5mph /  5.6km/h 3.5mph /  5.6km/h 90% 0.00in /  0mm
16:54 48.7 °F /  9.3 °C 45.9 °F /  7.7 °C 29.68in /  1005hPa SSW 2.3mph /  3.7km/h 2.3mph /  3.7km/h 90% 0.00in /  0mm
16:59 48.7 °F /  9.3 °C 45.9 °F /  7.7 °C 29.68in /  1005hPa SW 1.2mph /  1.9km/h 1.2mph /  1.9km/h 90% 0.00in /  0mm
17:04 48.7 °F /  9.3 °C 45.9 °F /  7.7 °C 29.67in /  1004.6hPa SSW 3.5mph /  5.6km/h 3.5mph /  5.6km/h 90% 0.00in /  0mm
17:09 48.8 °F /  9.3 °C 46.0 °F /  7.8 °C 29.67in /  1004.6hPa West 1.2mph /  1.9km/h 1.2mph /  1.9km/h 90% 0.00in /  0mm
17:14 48.8 °F /  9.3 °C 46.0 °F /  7.8 °C 29.67in /  1004.6hPa SW 2.3mph /  3.7km/h 2.3mph /  3.7km/h 90% 0.00in /  0mm
17:19 48.9 °F /  9.4 °C 46.1 °F /  7.8 °C 29.67in /  1004.6hPa West 2.3mph /  3.7km/h 2.3mph /  3.7km/h 90% 0.00in /  0mm
17:24 48.9 °F /  9.4 °C 46.1 °F /  7.8 °C 29.67in /  1004.6hPa WSW 2.3mph /  3.7km/h 2.3mph /  3.7km/h 90% 0.00in /  0mm
17:29 48.9 °F /  9.4 °C 45.8 °F /  7.7 °C 29.67in /  1004.6hPa SW 5.0mph /  8km/h 5.0mph /  8km/h 89% 0.00in /  0mm
17:34 49.0 °F /  9.4 °C 45.9 °F /  7.7 °C 29.66in /  1004.3hPa Calm     89% 0.00in /  0mm
17:39 48.9 °F /  9.4 °C 45.8 °F /  7.7 °C 29.66in /  1004.3hPa SSW 2.3mph /  3.7km/h 2.3mph /  3.7km/h 89% 0.00in /  0mm
17:44 48.9 °F /  9.4 °C 45.8 °F /  7.7 °C 29.65in /  1003.9hPa SW 2.3mph /  3.7km/h 2.3mph /  3.7km/h 89% 0.00in /  0mm
17:49 48.9 °F /  9.4 °C 45.8 °F /  7.7 °C 29.65in /  1003.9hPa WNW 1.2mph /  1.9km/h 1.2mph /  1.9km/h 89% 0.00in /  0mm
17:54 48.7 °F /  9.3 °C 45.9 °F /  7.7 °C 29.65in /  1003.9hPa Calm     90% 0.00in /  0mm
17:59 48.5 °F /  9.2 °C 45.7 °F /  7.6 °C 29.65in /  1003.9hPa Calm   0.3mph /  0.5km/h 90% 0.00in /  0mm
18:04 48.3 °F /  9.1 °C 45.8 °F /  7.7 °C 29.65in /  1003.9hPa NW 2.3mph /  3.7km/h 2.3mph /  3.7km/h 91% 0.01in /  0.3mm
18:09 48.1 °F /  8.9 °C 45.9 °F /  7.7 °C 29.65in /  1003.9hPa NW 1.2mph /  1.9km/h 1.2mph /  1.9km/h 92% 0.02in /  0.5mm
18:14 48.0 °F /  8.9 °C 45.8 °F /  7.7 °C 29.65in /  1003.9hPa NW 1.2mph /  1.9km/h 1.2mph /  1.9km/h 92% 0.03in /  0.8mm
18:19 47.8 °F /  8.8 °C 45.9 °F /  7.7 °C 29.65in /  1003.9hPa Calm     93% 0.04in /  1mm
18:24 47.6 °F /  8.7 °C 45.7 °F /  7.6 °C 29.65in /  1003.9hPa Calm     93% 0.04in /  1mm
18:29 47.5 °F /  8.6 °C 45.9 °F /  7.7 °C 29.65in /  1003.9hPa NW 1.2mph /  1.9km/h 1.2mph /  1.9km/h 94% 0.06in /  1.5mm
18:34 47.4 °F /  8.6 °C 45.8 °F /  7.7 °C 29.64in /  1003.6hPa Calm     94% 0.07in /  1.8mm
18:39 47.3 °F /  8.5 °C 45.7 °F /  7.6 °C 29.64in /  1003.6hPa Calm     94% 0.07in /  1.8mm
18:44 47.1 °F /  8.4 °C 45.7 °F /  7.6 °C 29.62in /  1002.9hPa NE 2.3mph /  3.7km/h 2.3mph /  3.7km/h 95% 0.07in /  1.8mm
18:49 46.8 °F /  8.2 °C 45.4 °F /  7.4 °C 29.62in /  1002.9hPa Calm     95% 0.08in /  2mm
18:54 46.5 °F /  8.1 °C 45.1 °F /  7.3 °C 29.63in /  1003.3hPa WNW 1.2mph /  1.9km/h 1.2mph /  1.9km/h 95% 0.08in /  2mm
18:59 46.3 °F /  7.9 °C 45.2 °F /  7.3 °C 29.61in /  1002.6hPa SSE 1.2mph /  1.9km/h 1.2mph /  1.9km/h 96% 0.08in /  2mm
19:04 46.3 °F /  7.9 °C 45.2 °F /  7.3 °C 29.60in /  1002.3hPa SSE 1.2mph /  1.9km/h   96% 0.07in /  1.8mm
19:09 46.2 °F /  7.9 °C 45.1 °F /  7.3 °C 29.60in /  1002.3hPa NNE 2.3mph /  3.7km/h 2.3mph /  3.7km/h 96% 0.06in /  1.5mm
19:14 46.0 °F /  7.8 °C 44.9 °F /  7.2 °C 29.60in /  1002.3hPa Calm     96% 0.05in /  1.3mm
19:19 46.0 °F /  7.8 °C 44.9 °F /  7.2 °C 29.59in /  1001.9hPa SE 1.2mph /  1.9km/h 1.2mph /  1.9km/h 96% 0.04in /  1mm
19:24 45.9 °F /  7.7 °C 44.8 °F /  7.1 °C 29.60in /  1002.3hPa WNW 2.3mph /  3.7km/h 2.3mph /  3.7km/h 96% 0.04in /  1mm
19:29 45.9 °F /  7.7 °C 44.8 °F /  7.1 °C 29.58in /  1001.6hPa ESE 3.0mph /  4.8km/h 3.0mph /  4.8km/h 96% 0.02in /  0.5mm
19:34 45.9 °F /  7.7 °C 45.1 °F /  7.3 °C 29.60in /  1002.3hPa NW 3.0mph /  4.8km/h 3.0mph /  4.8km/h 97% 0.01in /  0.3mm
19:39 45.9 °F /  7.7 °C 45.1 °F /  7.3 °C 29.61in /  1002.6hPa North 3.5mph /  5.6km/h 3.5mph /  5.6km/h 97% 0.01in /  0.3mm
19:44 45.9 °F /  7.7 °C 45.1 °F /  7.3 °C 29.61in /  1002.6hPa North 2.0mph /  3.2km/h 2.0mph /  3.2km/h 97% 0.01in /  0.3mm
19:49 45.9 °F /  7.7 °C 45.1 °F /  7.3 °C 29.61in /  1002.6hPa NW 1.2mph /  1.9km/h 1.2mph /  1.9km/h 97% 0.00in /  0mm
19:54 46.0 °F /  7.8 °C 45.2 °F /  7.3 °C 29.61in /  1002.6hPa NNE 3.5mph /  5.6km/h 3.5mph /  5.6km/h 97% 0.00in /  0mm
19:59 46.2 °F /  7.9 °C 45.4 °F /  7.4 °C 29.60in /  1002.3hPa NNE 1.2mph /  1.9km/h 1.2mph /  1.9km/h 97% 0.00in /  0mm
20:04 46.1 °F /  7.8 °C 45.3 °F /  7.4 °C 29.60in /  1002.3hPa NNE 1.2mph /  1.9km/h 1.2mph /  1.9km/h 97% 0.00in /  0mm
20:09 46.1 °F /  7.8 °C 45.3 °F /  7.4 °C 29.60in /  1002.3hPa East 2.0mph /  3.2km/h 2.0mph /  3.2km/h 97% 0.00in /  0mm
20:14 46.1 °F /  7.8 °C 45.3 °F /  7.4 °C 29.61in /  1002.6hPa East 3.5mph /  5.6km/h 3.5mph /  5.6km/h 97% 0.00in /  0mm
20:19 46.2 °F /  7.9 °C 45.4 °F /  7.4 °C 29.61in /  1002.6hPa SE 1.2mph /  1.9km/h   97% 0.01in /  0.3mm
20:24 46.3 °F /  7.9 °C 45.5 °F /  7.5 °C 29.60in /  1002.3hPa ESE 3.5mph /  5.6km/h 3.5mph /  5.6km/h 97% 0.02in /  0.5mm
20:29 46.2 °F /  7.9 °C 45.4 °F /  7.4 °C 29.61in /  1002.6hPa NNE 2.3mph /  3.7km/h 2.3mph /  3.7km/h 97% 0.02in /  0.5mm
20:34 46.2 °F /  7.9 °C 45.4 °F /  7.4 °C 29.63in /  1003.3hPa WNW 2.3mph /  3.7km/h 2.3mph /  3.7km/h 97% 0.03in /  0.8mm
20:39 46.2 °F /  7.9 °C 45.4 °F /  7.4 °C 29.64in /  1003.6hPa WNW 1.2mph /  1.9km/h 1.2mph /  1.9km/h 97% 0.05in /  1.3mm
20:44 46.2 °F /  7.9 °C 45.4 °F /  7.4 °C 29.64in /  1003.6hPa South 2.3mph /  3.7km/h 2.3mph /  3.7km/h 97% 0.09in /  2.3mm
20:49 46.4 °F /  8 °C 45.6 °F /  7.6 °C 29.63in /  1003.3hPa South 1.2mph /  1.9km/h 1.2mph /  1.9km/h 97% 0.15in /  3.8mm
20:54 46.4 °F /  8 °C 45.6 °F /  7.6 °C 29.63in /  1003.3hPa ESE 1.0mph /  1.6km/h 1.0mph /  1.6km/h 97% 0.18in /  4.6mm
20:59 46.4 °F /  8 °C 45.6 °F /  7.6 °C 29.64in /  1003.6hPa WNW 1.2mph /  1.9km/h 1.2mph /  1.9km/h 97% 0.19in /  4.8mm
21:04 46.4 °F /  8 °C 45.9 °F /  7.7 °C 29.67in /  1004.6hPa West 3.5mph /  5.6km/h 3.5mph /  5.6km/h 98% 0.23in /  5.8mm
21:09 46.2 °F /  7.9 °C 45.4 °F /  7.4 °C 29.67in /  1004.6hPa NNW 8.1mph /  13km/h 8.1mph /  13km/h 97% 0.27in /  6.9mm
21:14 45.9 °F /  7.7 °C 44.8 °F /  7.1 °C 29.68in /  1005hPa WNW 8.1mph /  13km/h 8.1mph /  13km/h 96% 0.29in /  7.4mm
21:19 45.6 °F /  7.6 °C 44.0 °F /  6.7 °C 29.68in /  1005hPa NW 6.9mph /  11.1km/h 6.9mph /  11.1km/h 94% 0.30in /  7.6mm
21:24 45.4 °F /  7.4 °C 43.8 °F /  6.6 °C 29.69in /  1005.3hPa WNW 11.5mph /  18.5km/h 11.5mph /  18.5km/h 94% 0.32in /  8.1mm
21:29 45.3 °F /  7.4 °C 43.7 °F /  6.5 °C 29.69in /  1005.3hPa WNW 10.4mph /  16.7km/h 10.4mph /  16.7km/h 94% 0.35in /  8.9mm
21:34 45.2 °F /  7.3 °C 43.9 °F /  6.6 °C 29.71in /  1006hPa SSW 4.6mph /  7.4km/h 4.6mph /  7.4km/h 95% 0.38in /  9.7mm
21:39 45.0 °F /  7.2 °C 43.7 °F /  6.5 °C 29.72in /  1006.3hPa SSW 11.5mph /  18.5km/h 11.5mph /  18.5km/h 95% 0.40in /  10.2mm
21:44 44.8 °F /  7.1 °C 43.5 °F /  6.4 °C 29.72in /  1006.3hPa NW 8.1mph /  13km/h 8.1mph /  13km/h 95% 0.41in /  10.4mm
21:49 44.5 °F /  6.9 °C 42.9 °F /  6.1 °C 29.72in /  1006.3hPa WNW 9.2mph /  14.8km/h 9.2mph /  14.8km/h 94% 0.40in /  10.2mm
21:54 44.1 °F /  6.7 °C 42.2 °F /  5.7 °C 29.72in /  1006.3hPa WSW 9.2mph /  14.8km/h 9.2mph /  14.8km/h 93% 0.41in /  10.4mm
21:59 43.9 °F /  6.6 °C 41.7 °F /  5.4 °C 29.73in /  1006.7hPa SW 17.3mph /  27.8km/h 17.3mph /  27.8km/h 92% 0.44in /  11.2mm
22:04 43.7 °F /  6.5 °C 41.5 °F /  5.3 °C 29.69in /  1005.3hPa SSW 10.4mph /  16.7km/h 10.4mph /  16.7km/h 92% 0.45in /  11.4mm
22:09 43.5 °F /  6.4 °C 41.3 °F /  5.2 °C 29.69in /  1005.3hPa SSE 8.1mph /  13km/h 8.1mph /  13km/h 92% 0.42in /  10.7mm
22:14 43.3 °F /  6.3 °C 41.1 °F /  5.1 °C 29.68in /  1005hPa South 9.2mph /  14.8km/h 9.2mph /  14.8km/h 92% 0.40in /  10.2mm
22:19 43.3 °F /  6.3 °C 41.1 °F /  5.1 °C 29.68in /  1005hPa South 6.9mph /  11.1km/h 6.9mph /  11.1km/h 92% 0.38in /  9.7mm
22:24 43.2 °F /  6.2 °C 41.0 °F /  5 °C 29.67in /  1004.6hPa WSW 3.5mph /  5.6km/h 3.5mph /  5.6km/h 92% 0.35in /  8.9mm
22:29 43.0 °F /  6.1 °C 40.8 °F /  4.9 °C 29.67in /  1004.6hPa Calm     92% 0.32in /  8.1mm
22:34 42.8 °F /  6 °C 40.6 °F /  4.8 °C 29.67in /  1004.6hPa SSW 1.2mph /  1.9km/h 1.2mph /  1.9km/h 92% 0.28in /  7.1mm
22:39 42.7 °F /  5.9 °C 40.8 °F /  4.9 °C 29.67in /  1004.6hPa Calm     93% 0.24in /  6.1mm
22:44 42.5 °F /  5.8 °C 40.6 °F /  4.8 °C 29.66in /  1004.3hPa WNW 2.0mph /  3.2km/h 2.0mph /  3.2km/h 93% 0.19in /  4.8mm
22:49 42.3 °F /  5.7 °C 40.7 °F /  4.8 °C 29.67in /  1004.6hPa NW 1.2mph /  1.9km/h   94% 0.14in /  3.6mm
22:54 42.1 °F /  5.6 °C 40.8 °F /  4.9 °C 29.67in /  1004.6hPa WSW 1.2mph /  1.9km/h   95% 0.10in /  2.5mm
22:59 42.0 °F /  5.6 °C 40.7 °F /  4.8 °C 29.67in /  1004.6hPa Calm     95% 0.06in /  1.5mm
23:04 41.9 °F /  5.5 °C 40.6 °F /  4.8 °C 29.67in /  1004.6hPa WSW 1.2mph /  1.9km/h 1.2mph /  1.9km/h 95% 0.01in /  0.3mm
23:09 41.7 °F /  5.4 °C 40.4 °F /  4.7 °C 29.67in /  1004.6hPa Calm     95% 0.00in /  0mm
23:14 41.5 °F /  5.3 °C 40.2 °F /  4.6 °C 29.67in /  1004.6hPa Calm     95% 0.00in /  0mm
23:19 41.2 °F /  5.1 °C 39.9 °F /  4.4 °C 29.68in /  1005hPa SSW 1.0mph /  1.6km/h 1.0mph /  1.6km/h 95% 0.00in /  0mm
23:24 40.9 °F /  4.9 °C 39.6 °F /  4.2 °C 29.68in /  1005hPa Calm     95% 0.00in /  0mm
23:29 40.7 °F /  4.8 °C 39.6 °F /  4.2 °C 29.68in /  1005hPa Calm     96% 0.00in /  0mm
23:35 40.6 °F /  4.8 °C 39.5 °F /  4.2 °C 29.67in /  1004.6hPa Calm     96% 0.00in /  0mm
23:40 40.3 °F /  4.6 °C 39.3 °F /  4.1 °C 29.67in /  1004.6hPa SSW 1.2mph /  1.9km/h   96% 0.00in /  0mm
23:45 39.9 °F /  4.4 °C 38.9 °F /  3.8 °C 29.67in /  1004.6hPa Calm     96% 0.00in /  0mm
23:50 39.7 °F /  4.3 °C 38.7 °F /  3.7 °C 29.67in /  1004.6hPa SSW 1.2mph /  1.9km/h 1.2mph /  1.9km/h 96% 0.00in /  0mm
23:55 39.4 °F /  4.1 °C 38.4 °F /  3.6 °C 29.67in /  1004.6hPa Calm     96% 0.00in /  0mm
Smyth Weather
Compliments of Weather Underground